NO-0022 weather

Sølenstua Airfield
Rendalen, Hedmark, Norway

Public forecast

Using degrees Celsius for public forecast. Weather courtesy of forecast.io.

Closest aviation weather report (METAR) to Sølenstua Airfield

Closest report is Røros Airport, 45.8 nm (84.9 km) NNW. Retrieved 2020/04/04 07:50 UTC (16 minutes ago):

ENRO 040750Z AUTO 26011KT 4300NDV -SN VV/// M05/M07 Q1007

Closest aviation forecast (TAF) to Sølenstua Airfield

Closest forecast is Trondheim Airport Værnes, 99.8 nm (184.9 km) NNW. Retrieved 2020/04/04 06:57 UTC (1 hour ago):

TAF ENVA 040500Z 0406/0506 26015KT 9999 -SHSN FEW015TCU BKN030 TEMPO 0406/0415 30025KT 0600 SHSNGS VV005 TEMPO 0406/0415 SCT015CB BECMG 0417/0420 10008KT